Time;durP1;ratioP1;P1;durP2;ratioP2;P2;SDS_P1;SDS_P2;PMS_P1;PMS_P2;Temp;Humidity;BMP_temperature;BMP_pressure;BME280_temperature;BME280_humidity;BME280_pressure;Samples;Min_cycle;Max_cycle;Signal;HPM_P1;HPM_P2
2021/03/27 00:00:34;;;;;;;19.40;15.40;;;9.20;99.90;;;;;;4990753;28;20029;-73
2021/03/27 00:03:14;;;;;;;24.35;17.58;;;9.20;99.90;;;;;;4990005;28;20026;-74
2021/03/27 00:05:57;;;;;;;18.27;15.80;;;9.10;99.90;;;;;;4985800;28;20041;-74
2021/03/27 00:09:03;;;;;;;17.40;14.90;;;9.20;99.90;;;;;;4991669;28;20038;-74
2021/03/27 00:11:39;;;;;;;18.17;13.00;;;9.20;99.90;;;;;;4990285;28;20353;-74
2021/03/27 00:14:08;;;;;;;21.05;14.48;;;9.10;99.90;;;;;;4990629;28;20027;-74
2021/03/27 00:16:56;;;;;;;19.08;14.23;;;9.20;99.90;;;;;;4992823;28;20030;-74
2021/03/27 00:19:59;;;;;;;14.30;12.57;;;9.10;99.90;;;;;;4990921;28;20510;-73
2021/03/27 00:22:31;;;;;;;15.30;12.85;;;9.10;99.90;;;;;;4973342;28;20046;-74
2021/03/27 00:25:00;;;;;;;17.08;12.90;;;9.20;99.90;;;;;;4988542;28;20084;-74
2021/03/27 00:27:35;;;;;;;17.42;13.10;;;9.10;99.90;;;;;;4980567;28;20547;-74
2021/03/27 00:30:23;;;;;;;18.27;12.50;;;9.20;99.90;;;;;;4990952;28;20038;-74
2021/03/27 00:32:52;;;;;;;18.65;14.05;;;9.30;99.90;;;;;;4990392;28;20388;-74
2021/03/27 00:35:31;;;;;;;19.88;13.02;;;9.20;99.90;;;;;;4990439;28;20397;-74
2021/03/27 00:38:00;;;;;;;16.77;14.18;;;9.20;99.90;;;;;;4973717;28;20034;-74
2021/03/27 00:40:29;;;;;;;22.42;13.50;;;9.20;99.90;;;;;;4987148;28;20030;-74
2021/03/27 00:43:04;;;;;;;17.83;13.85;;;9.20;99.90;;;;;;4987903;28;20599;-78
2021/03/27 00:45:39;;;;;;;15.88;13.23;;;9.10;99.90;;;;;;4987184;28;20122;-73
2021/03/27 00:48:10;;;;;;;17.85;13.38;;;9.10;99.90;;;;;;4989866;28;20069;-74
2021/03/27 00:50:41;;;;;;;15.45;12.48;;;9.10;99.90;;;;;;4990177;28;20025;-75
2021/03/27 00:53:19;;;;;;;13.82;10.60;;;9.10;99.90;;;;;;4988819;28;20072;-75
2021/03/27 00:55:53;;;;;;;19.73;12.10;;;9.10;99.90;;;;;;4988213;28;20510;-74
2021/03/27 00:58:27;;;;;;;16.48;12.30;;;9.10;99.90;;;;;;4990050;28;20042;-75
2021/03/27 01:01:06;;;;;;;18.73;12.80;;;9.20;99.90;;;;;;4989317;28;20030;-74
2021/03/27 01:03:49;;;;;;;16.90;11.27;;;9.20;99.90;;;;;;4988519;28;20097;-74
2021/03/27 01:06:18;;;;;;;14.93;11.20;;;9.10;99.90;;;;;;4988193;28;20546;-74
2021/03/27 01:08:47;;;;;;;15.52;12.48;;;9.10;99.90;;;;;;4988459;28;20046;-75
2021/03/27 01:11:44;;;;;;;14.00;11.77;;;9.10;99.90;;;;;;4971249;28;20022;-75
2021/03/27 01:14:17;;;;;;;18.20;11.77;;;9.10;99.90;;;;;;4987502;28;20539;-75
2021/03/27 01:16:53;;;;;;;;;;;9.20;99.90;;;;;;4989650;28;20031;-74
2021/03/27 01:19:42;;;;;;;14.18;10.50;;;9.20;99.90;;;;;;4989212;28;20327;-73
2021/03/27 01:22:10;;;;;;;17.88;12.10;;;9.20;99.90;;;;;;4988209;28;20592;-74
2021/03/27 01:24:36;;;;;;;21.90;13.30;;;9.20;99.90;;;;;;4990024;28;20452;-74
2021/03/27 01:27:25;;;;;;;12.40;11.10;;;9.20;99.90;;;;;;4990369;28;20124;-74
2021/03/27 01:30:06;;;;;;;15.10;10.88;;;9.30;99.90;;;;;;4989187;28;20026;-75
2021/03/27 01:32:53;;;;;;;14.93;11.27;;;9.40;99.90;;;;;;4984440;28;20550;-73
2021/03/27 01:35:36;;;;;;;11.80;10.55;;;9.50;99.90;;;;;;4971637;28;20026;-74
2021/03/27 01:38:07;;;;;;;;;;;9.50;99.90;;;;;;4989036;28;20026;-74
2021/03/27 01:41:11;;;;;;;11.60;9.85;;;9.60;99.90;;;;;;4989650;28;19917;-74
2021/03/27 01:43:52;;;;;;;11.93;9.88;;;9.60;99.90;;;;;;4985502;28;20030;-74
2021/03/27 01:46:24;;;;;;;10.60;9.43;;;9.60;99.90;;;;;;4986868;28;20045;-74
2021/03/27 01:48:49;;;;;;;10.03;9.00;;;9.60;99.90;;;;;;4989102;28;20030;-74
2021/03/27 01:51:24;;;;;;;18.77;9.98;;;9.70;99.90;;;;;;4989359;28;20030;-74
2021/03/27 01:54:05;;;;;;;11.80;9.23;;;9.80;99.90;;;;;;4985474;28;20050;-74
2021/03/27 01:56:42;;;;;;;15.73;10.30;;;9.80;99.90;;;;;;4987001;28;20027;-74
2021/03/27 01:59:13;;;;;;;11.57;9.05;;;9.80;99.90;;;;;;4989088;28;20030;-75
2021/03/27 02:01:54;;;;;;;11.20;8.90;;;9.90;99.90;;;;;;4969126;28;20076;-74
2021/03/27 02:04:23;;;;;;;9.50;8.00;;;10.00;99.90;;;;;;4982284;28;20084;-73
2021/03/27 02:07:06;;;;;;;9.85;8.95;;;10.00;99.90;;;;;;4985153;28;20141;-73
2021/03/27 02:09:44;;;;;;;15.20;9.02;;;10.10;99.90;;;;;;4988363;28;20026;-74
2021/03/27 02:12:31;;;;;;;10.20;9.07;;;10.20;99.90;;;;;;4990351;28;20085;-76
2021/03/27 02:15:08;;;;;;;14.15;10.90;;;10.20;99.90;;;;;;4989151;28;20034;-74
2021/03/27 02:17:44;;;;;;;11.80;9.85;;;10.20;99.90;;;;;;4986545;28;20390;-75
2021/03/27 02:20:31;;;;;;;12.80;9.57;;;10.20;99.90;;;;;;4987387;28;20022;-75
2021/03/27 02:23:29;;;;;;;9.38;8.40;;;10.20;99.90;;;;;;4985480;28;20042;-74
2021/03/27 02:26:08;;;;;;;9.90;8.90;;;10.30;99.90;;;;;;4988852;28;20502;-74
2021/03/27 02:28:58;;;;;;;12.00;8.15;;;10.30;99.90;;;;;;4972025;28;20076;-74
2021/03/27 02:31:36;;;;;;;10.25;9.18;;;10.30;99.90;;;;;;4987801;28;20035;-74
2021/03/27 02:34:11;;;;;;;10.70;9.23;;;10.40;99.90;;;;;;4990236;28;20499;-74
2021/03/27 02:37:08;;;;;;;13.95;8.98;;;10.40;99.90;;;;;;4988279;28;20034;-75
2021/03/27 02:39:46;;;;;;;14.40;7.60;;;10.40;99.90;;;;;;4976025;28;20074;-74
2021/03/27 02:42:30;;;;;;;9.02;8.20;;;10.50;99.90;;;;;;4975207;28;20042;-74
2021/03/27 02:45:22;;;;;;;9.70;7.32;;;10.50;99.90;;;;;;4992652;28;20519;-75
2021/03/27 02:48:09;;;;;;;10.23;7.25;;;10.50;99.90;;;;;;4991823;28;20464;-75
2021/03/27 02:50:50;;;;;;;9.57;7.45;;;10.50;99.90;;;;;;4990278;28;20038;-75
2021/03/27 02:53:22;;;;;;;11.60;8.43;;;10.50;99.90;;;;;;4992288;28;20511;-73
2021/03/27 02:56:22;;;;;;;9.95;8.75;;;10.40;99.90;;;;;;4992090;28;20034;-73
2021/03/27 02:59:32;;;;;;;9.55;7.53;;;10.60;99.90;;;;;;4988992;28;20022;-73
2021/03/27 03:02:20;;;;;;;9.35;7.25;;;10.80;99.90;;;;;;4951405;28;20501;-73
2021/03/27 03:05:10;;;;;;;8.52;7.20;;;10.70;99.90;;;;;;4970810;28;20165;-74
2021/03/27 03:07:48;;;;;;;7.82;7.03;;;10.80;99.90;;;;;;4986019;28;20022;-75
2021/03/27 03:10:30;;;;;;;14.32;7.63;;;10.80;99.90;;;;;;4995096;28;20023;-74
2021/03/27 03:13:34;;;;;;;12.35;7.03;;;10.80;99.90;;;;;;4997842;28;20030;-75
2021/03/27 03:16:06;;;;;;;8.75;7.20;;;10.90;99.90;;;;;;4980262;28;20046;-75
2021/03/27 03:19:03;;;;;;;9.60;7.33;;;10.90;99.90;;;;;;4982336;28;20536;-74
2021/03/27 03:21:56;;;;;;;11.73;7.50;;;11.00;99.90;;;;;;4990269;28;20636;-74
2021/03/27 03:24:37;;;;;;;11.77;7.97;;;11.10;99.90;;;;;;4983946;28;20042;-75
2021/03/27 03:27:40;;;;;;;11.60;7.20;;;11.10;99.90;;;;;;4991102;28;20042;-75
2021/03/27 03:30:09;;;;;;;9.18;6.78;;;11.00;99.90;;;;;;4991381;28;20294;-74
2021/03/27 03:32:43;;;;;;;9.63;7.55;;;11.00;99.90;;;;;;4991316;28;20062;-75
2021/03/27 03:35:38;;;;;;;8.27;7.47;;;11.00;99.90;;;;;;4990837;28;20018;-73
2021/03/27 03:38:12;;;;;;;9.63;7.03;;;11.10;99.90;;;;;;4993788;28;20026;-74
2021/03/27 03:40:57;;;;;;;11.15;7.65;;;11.10;99.90;;;;;;4992220;28;20065;-75
2021/03/27 03:43:46;;;;;;;14.63;6.47;;;11.20;99.90;;;;;;4988958;28;20045;-75
2021/03/27 03:46:26;;;;;;;6.95;6.15;;;11.20;99.90;;;;;;4989463;28;20026;-74
2021/03/27 03:49:03;;;;;;;13.10;6.57;;;11.30;99.90;;;;;;4988066;28;20026;-74
2021/03/27 03:51:47;;;;;;;9.95;6.72;;;11.30;99.90;;;;;;4990452;28;20022;-74
2021/03/27 03:54:31;;;;;;;8.52;6.53;;;11.40;99.90;;;;;;4991008;28;20030;-74
2021/03/27 03:57:02;;;;;;;6.75;6.07;;;11.50;99.90;;;;;;4988274;28;20469;-74
2021/03/27 03:59:36;;;;;;;12.60;6.25;;;11.50;99.90;;;;;;4987855;28;20058;-74
2021/03/27 04:02:19;;;;;;;9.55;7.78;;;11.50;99.90;;;;;;4989976;28;20562;-74
2021/03/27 04:04:49;;;;;;;11.07;6.97;;;11.60;99.90;;;;;;4989730;28;20031;-74
2021/03/27 04:07:30;;;;;;;14.80;8.18;;;11.60;99.90;;;;;;4990287;28;20431;-74
2021/03/27 04:10:01;;;;;;;8.25;5.85;;;11.70;99.90;;;;;;4990095;28;20037;-75
2021/03/27 04:12:30;;;;;;;11.33;7.83;;;11.80;99.90;;;;;;4988367;28;21353;-75
2021/03/27 04:15:33;;;;;;;12.95;8.60;;;11.80;99.90;;;;;;4992136;28;20027;-75
2021/03/27 04:18:20;;;;;;;8.68;7.63;;;11.80;99.90;;;;;;4987273;28;20089;-75
2021/03/27 04:21:00;;;;;;;9.95;7.35;;;11.80;99.90;;;;;;4990550;28;20049;-75
2021/03/27 04:23:35;;;;;;;7.80;6.80;;;12.00;99.90;;;;;;4979382;28;20081;-74
2021/03/27 04:26:21;;;;;;;12.75;7.05;;;12.00;99.90;;;;;;4990408;28;20037;-75
2021/03/27 04:29:11;;;;;;;8.35;7.53;;;12.00;99.90;;;;;;4991578;28;20080;-75
2021/03/27 04:32:02;;;;;;;14.88;7.88;;;11.90;99.90;;;;;;4989515;28;20030;-74
2021/03/27 04:34:33;;;;;;;8.43;7.43;;;11.90;99.90;;;;;;4987570;28;20116;-73
2021/03/27 04:37:09;;;;;;;13.75;8.68;;;11.90;99.90;;;;;;4986195;28;20061;-75
2021/03/27 04:39:43;;;;;;;14.85;7.82;;;11.90;99.90;;;;;;4975550;28;20901;-73
2021/03/27 04:42:13;;;;;;;13.50;8.93;;;11.90;99.90;;;;;;4985025;28;20034;-74
2021/03/27 04:44:50;;;;;;;16.77;9.15;;;12.00;99.90;;;;;;4989406;28;20031;-73
2021/03/27 04:47:30;;;;;;;10.40;8.20;;;12.00;99.90;;;;;;4986961;28;20054;-74
2021/03/27 04:50:21;;;;;;;10.40;8.60;;;12.10;99.90;;;;;;4990872;28;20033;-74
2021/03/27 04:53:28;;;;;;;10.13;8.50;;;12.10;99.90;;;;;;4985657;28;20035;-75
2021/03/27 04:56:02;;;;;;;10.85;8.43;;;12.10;99.90;;;;;;4963332;28;20093;-74
2021/03/27 04:58:52;;;;;;;12.57;7.85;;;12.10;99.90;;;;;;4985128;28;20026;-75
2021/03/27 05:01:41;;;;;;;13.10;8.48;;;12.10;99.90;;;;;;4990213;28;20092;-73
2021/03/27 05:04:24;;;;;;;10.77;9.32;;;12.00;99.90;;;;;;4986842;28;20030;-74
2021/03/27 05:07:04;;;;;;;12.35;9.20;;;12.10;99.90;;;;;;4986674;28;20455;-74
2021/03/27 05:09:46;;;;;;;11.07;9.43;;;12.10;99.90;;;;;;4985523;28;20480;-75
2021/03/27 05:12:43;;;;;;;13.00;10.23;;;12.10;99.90;;;;;;4985384;28;20046;-74
2021/03/27 05:15:17;;;;;;;12.68;9.02;;;12.10;99.90;;;;;;4980821;28;20124;-74
2021/03/27 05:17:43;;;;;;;16.60;10.75;;;12.20;99.90;;;;;;4991518;28;20492;-74
2021/03/27 05:20:17;;;;;;;10.48;9.48;;;12.20;99.90;;;;;;4991036;28;20030;-75
2021/03/27 05:23:06;;;;;;;14.05;9.05;;;12.20;99.90;;;;;;4990928;28;20033;-75
2021/03/27 05:26:02;;;;;;;10.48;9.13;;;12.20;99.90;;;;;;4989253;28;20113;-75
2021/03/27 05:28:57;;;;;;;11.82;10.63;;;12.20;99.90;;;;;;4984023;28;20060;-75
2021/03/27 05:31:55;;;;;;;11.00;9.40;;;12.20;99.90;;;;;;4980027;28;20084;-75
2021/03/27 05:34:31;;;;;;;14.30;10.35;;;12.30;99.90;;;;;;4987820;28;20014;-75
2021/03/27 05:37:20;;;;;;;14.15;11.05;;;12.30;99.90;;;;;;4988167;28;20065;-75
2021/03/27 05:40:10;;;;;;;15.55;10.75;;;12.40;99.90;;;;;;4989776;28;20065;-75
2021/03/27 05:42:57;;;;;;;16.65;11.30;;;12.40;99.90;;;;;;4987489;28;20041;-74
2021/03/27 05:45:51;;;;;;;14.32;12.00;;;12.40;99.90;;;;;;4990484;28;20503;-74
2021/03/27 05:48:48;;;;;;;17.80;13.88;;;12.40;99.90;;;;;;4990687;28;20065;-74
2021/03/27 05:51:41;;;;;;;13.65;12.20;;;12.40;99.90;;;;;;4973283;28;20046;-73
2021/03/27 05:54:25;;;;;;;16.40;11.48;;;12.40;99.90;;;;;;4989423;28;20056;-74
2021/03/27 05:57:10;;;;;;;17.38;13.30;;;12.30;99.90;;;;;;4990480;28;20030;-75
2021/03/27 06:00:09;;;;;;;18.85;13.43;;;12.40;99.90;;;;;;4987884;28;20117;-74
2021/03/27 06:02:56;;;;;;;17.92;12.85;;;12.30;99.90;;;;;;4973742;28;20029;-76
2021/03/27 06:05:46;;;;;;;17.83;13.55;;;12.40;99.90;;;;;;4990023;28;20026;-76
2021/03/27 06:08:20;;;;;;;14.85;13.18;;;12.40;99.90;;;;;;4988344;28;20019;-74
2021/03/27 06:11:10;;;;;;;18.38;13.88;;;12.50;99.90;;;;;;4988299;28;20032;-75
2021/03/27 06:14:13;;;;;;;18.65;11.57;;;12.50;99.90;;;;;;4977686;28;20045;-75
2021/03/27 06:17:09;;;;;;;20.55;15.02;;;12.60;99.90;;;;;;4986657;28;20073;-75
2021/03/27 06:19:56;;;;;;;18.70;12.95;;;12.80;99.90;;;;;;4970555;28;20042;-74
2021/03/27 06:22:54;;;;;;;13.93;12.52;;;12.80;99.90;;;;;;4990666;28;20038;-75
2021/03/27 06:25:45;;;;;;;14.98;13.48;;;12.80;99.90;;;;;;4977823;28;20033;-74
2021/03/27 06:28:35;;;;;;;14.18;12.02;;;12.90;99.90;;;;;;4978101;28;20373;-76
2021/03/27 06:31:38;;;;;;;17.73;12.93;;;12.90;99.90;;;;;;4988629;28;20037;-75
2021/03/27 06:34:47;;;;;;;16.40;13.02;;;12.80;99.90;;;;;;4989496;28;20081;-75
2021/03/27 06:38:10;;;;;;;23.90;14.15;;;12.90;99.90;;;;;;4989462;28;20030;-76
2021/03/27 06:41:23;;;;;;;18.42;14.02;;;12.90;99.90;;;;;;4937333;29;20030;-77
2021/03/27 06:44:16;;;;;;;26.30;15.98;;;12.90;99.90;;;;;;4945710;28;20036;-74
2021/03/27 06:47:30;;;;;;;24.27;15.57;;;12.90;99.90;;;;;;4986031;28;20034;-75
2021/03/27 06:50:39;;;;;;;15.65;13.75;;;12.90;99.90;;;;;;4985161;28;20038;-77
2021/03/27 06:53:26;;;;;;;20.20;14.55;;;13.00;99.90;;;;;;4991231;28;20026;-76
2021/03/27 06:56:17;;;;;;;21.00;16.08;;;13.00;99.90;;;;;;4992300;28;20101;-74
2021/03/27 06:59:09;;;;;;;20.33;14.85;;;13.00;99.90;;;;;;4987052;28;20037;-76
2021/03/27 07:02:06;;;;;;;19.73;15.90;;;13.10;99.90;;;;;;4985253;28;20485;-75
2021/03/27 07:04:37;;;;;;;15.75;14.13;;;13.10;99.90;;;;;;4989187;28;20377;-75
2021/03/27 07:07:48;;;;;;;19.33;15.38;;;13.10;99.90;;;;;;4986700;28;20030;-75
2021/03/27 07:10:49;;;;;;;18.83;15.50;;;13.30;99.90;;;;;;4987717;28;20065;-75
2021/03/27 07:13:33;;;;;;;23.08;15.73;;;13.30;99.90;;;;;;4985762;28;20031;-75
2021/03/27 07:16:27;;;;;;;16.67;14.60;;;13.30;99.90;;;;;;4988570;28;20029;-70
2021/03/27 07:19:14;;;;;;;21.23;14.85;;;13.30;99.90;;;;;;4989805;28;20030;-69
2021/03/27 07:22:05;;;;;;;22.75;13.43;;;13.20;99.90;;;;;;4988651;28;20389;-69
2021/03/27 07:24:33;;;;;;;15.50;12.90;;;13.40;99.90;;;;;;4992583;28;20114;-68
2021/03/27 07:27:21;;;;;;;24.77;11.65;;;13.50;99.90;;;;;;4992970;28;20080;-70
2021/03/27 07:29:49;;;;;;;14.32;11.43;;;14.00;99.90;;;;;;4993215;28;20373;-68
2021/03/27 07:32:56;;;;;;;21.77;14.95;;;14.70;99.90;;;;;;4992442;28;20466;-68
2021/03/27 07:35:37;;;;;;;20.05;14.18;;;15.10;99.90;;;;;;4950185;28;20454;-69
2021/03/27 07:38:15;;;;;;;18.42;14.10;;;15.30;99.90;;;;;;4951013;28;20063;-69
2021/03/27 07:40:50;;;;;;;21.50;14.25;;;15.10;99.90;;;;;;4972852;28;20038;-69
2021/03/27 07:43:53;;;;;;;16.27;14.07;;;14.90;99.90;;;;;;4990032;28;20022;-69
2021/03/27 07:46:28;;;;;;;16.90;13.52;;;14.70;99.90;;;;;;4989204;28;20041;-71
2021/03/27 07:49:27;;;;;;;15.63;12.13;;;14.60;99.90;;;;;;4993052;28;20507;-71
2021/03/27 07:52:44;;;;;;;15.05;12.55;;;14.60;99.90;;;;;;4972353;28;20062;-71
2021/03/27 07:55:27;;;;;;;24.15;14.02;;;14.60;99.90;;;;;;4940426;29;20087;-72
2021/03/27 07:58:20;;;;;;;18.13;15.00;;;14.70;99.90;;;;;;4940235;29;20032;-70
2021/03/27 08:00:57;;;;;;;18.30;13.88;;;14.60;99.90;;;;;;4980677;28;20038;-69
2021/03/27 08:03:50;;;;;;;20.00;14.65;;;14.40;99.90;;;;;;4980646;28;20031;-71
2021/03/27 08:06:37;;;;;;;15.20;13.30;;;14.30;99.90;;;;;;4990211;28;20033;-71
2021/03/27 08:09:40;;;;;;;19.73;14.75;;;14.20;99.90;;;;;;4991482;28;20030;-71
2021/03/27 08:12:39;;;;;;;17.75;15.35;;;14.20;99.90;;;;;;4990969;28;20388;-73
2021/03/27 08:15:42;;;;;;;22.75;14.40;;;14.30;99.90;;;;;;4989044;28;20033;-70
2021/03/27 08:18:29;;;;;;;23.13;15.80;;;14.30;99.90;;;;;;4991743;28;20093;-71
2021/03/27 08:20:58;;;;;;;15.93;14.32;;;14.50;99.90;;;;;;4991053;28;20062;-71
2021/03/27 08:23:52;;;;;;;15.02;13.15;;;14.50;99.90;;;;;;4985623;28;20030;-71
2021/03/27 08:26:59;;;;;;;21.02;13.57;;;14.60;99.90;;;;;;4990921;28;20053;-71
2021/03/27 08:29:56;;;;;;;19.80;14.15;;;14.80;99.90;;;;;;4961122;28;20069;-70
2021/03/27 08:32:45;;;;;;;19.02;12.98;;;14.90;99.90;;;;;;4987600;28;20022;-71
2021/03/27 08:35:26;;;;;;;22.48;15.00;;;15.10;99.90;;;;;;4991270;28;20031;-71
2021/03/27 08:38:07;;;;;;;26.98;15.00;;;14.80;99.90;;;;;;4990783;28;20026;-71
2021/03/27 08:40:35;;;;;;;18.52;13.48;;;14.80;99.90;;;;;;4979980;28;20026;-70
2021/03/27 08:43:13;;;;;;;20.90;15.50;;;14.90;99.90;;;;;;4966424;28;20381;-69
2021/03/27 08:46:16;;;;;;;20.10;14.07;;;15.00;99.90;;;;;;4985406;28;20392;-72
2021/03/27 08:49:00;;;;;;;26.48;15.30;;;15.10;99.90;;;;;;4984908;28;20125;-70
2021/03/27 08:51:52;;;;;;;22.42;16.35;;;15.20;99.90;;;;;;4983386;28;20476;-71
2021/03/27 08:54:56;;;;;;;21.02;15.70;;;15.20;99.90;;;;;;4957716;28;20058;-71
2021/03/27 08:57:50;;;;;;;18.17;14.68;;;15.10;99.90;;;;;;4987415;28;20049;-71
2021/03/27 09:00:31;;;;;;;25.63;14.25;;;14.90;99.90;;;;;;4983074;28;20030;-71
2021/03/27 09:03:19;;;;;;;23.33;14.32;;;14.80;99.90;;;;;;4988050;28;20037;-72
2021/03/27 09:06:16;;;;;;;23.10;14.02;;;14.80;99.90;;;;;;4959032;28;20039;-71
2021/03/27 09:08:52;;;;;;;25.15;13.95;;;14.80;99.90;;;;;;4993161;28;20114;-71
2021/03/27 09:11:31;;;;;;;27.85;14.50;;;14.90;99.90;;;;;;4973119;28;20388;-71
2021/03/27 09:14:14;;;;;;;18.08;13.52;;;14.90;99.90;;;;;;4986679;28;20034;-72
2021/03/27 09:16:55;;;;;;;21.88;15.10;;;15.00;99.90;;;;;;4989543;28;20064;-71
2021/03/27 09:19:48;;;;;;;21.60;14.30;;;15.00;99.90;;;;;;4990485;28;20054;-71
2021/03/27 09:22:43;;;;;;;17.73;14.38;;;15.10;99.90;;;;;;4991563;28;20114;-72
2021/03/27 09:25:32;;;;;;;20.75;12.95;;;15.00;99.90;;;;;;4938536;28;20071;-71
2021/03/27 09:28:25;;;;;;;21.85;13.90;;;15.20;99.90;;;;;;4988604;28;20026;-72
2021/03/27 09:30:58;;;;;;;20.25;13.70;;;15.20;99.90;;;;;;4991554;28;20041;-71
2021/03/27 09:33:53;;;;;;;15.77;12.35;;;15.30;99.90;;;;;;4990834;28;20098;-72
2021/03/27 09:36:32;;;;;;;23.42;14.00;;;15.40;99.90;;;;;;4988788;28;20030;-72
2021/03/27 09:39:04;;;;;;;19.73;13.38;;;15.30;99.90;;;;;;4990250;28;20037;-72
2021/03/27 09:41:54;;;;;;;20.35;14.27;;;15.40;99.90;;;;;;4989385;28;20019;-71
2021/03/27 09:44:36;;;;;;;21.90;13.57;;;15.60;99.90;;;;;;4989877;28;20069;-72
2021/03/27 09:47:11;;;;;;;;;;;15.80;99.90;;;;;;4991278;28;20157;-71
2021/03/27 09:50:00;;;;;;;16.45;12.43;;;15.90;99.90;;;;;;4984670;28;20007;-73
2021/03/27 09:52:37;;;;;;;21.80;13.30;;;16.00;99.90;;;;;;4988039;28;20042;-71
2021/03/27 09:55:15;;;;;;;16.67;12.38;;;16.20;99.90;;;;;;4988428;28;20026;-72
2021/03/27 09:57:56;;;;;;;17.70;12.95;;;16.20;99.90;;;;;;4989668;28;20543;-73
2021/03/27 10:00:44;;;;;;;13.80;11.57;;;16.20;99.90;;;;;;4989017;28;20034;-71
2021/03/27 10:03:27;;;;;;;19.50;13.05;;;16.40;99.90;;;;;;4988862;28;20041;-71
2021/03/27 10:05:56;;;;;;;18.08;11.75;;;16.30;99.90;;;;;;4990014;28;20054;-72
2021/03/27 10:08:27;;;;;;;17.83;12.45;;;16.40;99.90;;;;;;4990476;28;20022;-72
2021/03/27 10:11:08;;;;;;;17.05;13.00;;;16.20;99.90;;;;;;4990758;28;20034;-72
2021/03/27 10:13:48;;;;;;;28.83;12.35;;;16.00;99.90;;;;;;4989496;28;20053;-72
2021/03/27 10:16:43;;;;;;;17.00;12.20;;;15.80;99.90;;;;;;4985829;28;20121;-72
2021/03/27 10:19:17;;;;;;;22.38;12.90;;;15.80;99.90;;;;;;4989553;28;20108;-74
2021/03/27 10:21:58;;;;;;;19.45;13.75;;;15.90;99.90;;;;;;4992413;28;20117;-72
2021/03/27 10:24:49;;;;;;;21.83;12.40;;;16.20;99.90;;;;;;4989473;28;20054;-71
2021/03/27 10:27:31;;;;;;;15.18;12.00;;;16.40;99.90;;;;;;4977698;28;20457;-73
2021/03/27 10:30:20;;;;;;;23.15;12.68;;;16.70;99.90;;;;;;4989593;28;20032;-72
2021/03/27 10:32:48;;;;;;;14.98;12.85;;;16.80;99.90;;;;;;4989739;28;20671;-72
2021/03/27 10:35:50;;;;;;;16.83;12.32;;;17.10;99.90;;;;;;4988866;28;20034;-73
2021/03/27 10:38:25;;;;;;;14.10;11.75;;;17.10;99.90;;;;;;4985571;28;20070;-72
2021/03/27 10:41:14;;;;;;;16.70;12.35;;;17.30;99.90;;;;;;4990360;28;20031;-72
2021/03/27 10:44:24;;;;;;;19.55;13.23;;;17.40;99.90;;;;;;4986652;28;20559;-73
2021/03/27 10:47:00;;;;;;;18.70;13.60;;;17.40;99.90;;;;;;4977458;28;20050;-73
2021/03/27 10:49:28;;;;;;;22.02;11.75;;;17.40;99.90;;;;;;4981764;28;20026;-73
2021/03/27 10:52:32;;;;;;;23.02;12.68;;;17.60;99.90;;;;;;4985661;28;21753;-75
2021/03/27 10:55:16;;;;;;;18.92;13.48;;;17.60;99.90;;;;;;4992653;28;20030;-73
2021/03/27 10:58:00;;;;;;;26.60;14.35;;;17.60;99.90;;;;;;4991522;28;20109;-72
2021/03/27 11:00:50;;;;;;;23.52;16.77;;;17.30;99.90;;;;;;4986444;28;20037;-72
2021/03/27 11:03:53;;;;;;;24.52;18.00;;;16.40;99.90;;;;;;4995289;28;20420;-72
2021/03/27 11:07:08;;;;;;;24.58;18.15;;;15.50;99.90;;;;;;4995404;28;20034;-73
2021/03/27 11:09:39;;;;;;;22.08;17.88;;;15.50;99.90;;;;;;4993312;28;20094;-72
2021/03/27 11:12:50;;;;;;;24.50;18.13;;;15.40;99.90;;;;;;4990260;28;20027;-72
2021/03/27 11:15:28;;;;;;;32.20;19.73;;;15.30;99.90;;;;;;4989460;28;20031;-73
2021/03/27 11:18:15;;;;;;;26.85;19.63;;;15.30;99.90;;;;;;4991726;28;20118;-72
2021/03/27 11:20:52;;;;;;;24.90;19.80;;;15.50;99.90;;;;;;4989957;28;20034;-73
2021/03/27 11:23:30;;;;;;;23.88;18.63;;;15.50;99.90;;;;;;4993500;28;20097;-72
2021/03/27 11:26:36;;;;;;;23.40;20.38;;;15.30;99.90;;;;;;4992084;28;20042;-73
2021/03/27 11:29:34;;;;;;;32.97;20.80;;;14.90;99.90;;;;;;4992361;28;20038;-72
2021/03/27 11:32:18;;;;;;;29.23;22.10;;;14.90;99.90;;;;;;4985774;28;20018;-73
2021/03/27 11:35:00;;;;;;;24.83;21.17;;;14.80;99.90;;;;;;4995797;28;20057;-74
2021/03/27 11:37:38;;;;;;;32.63;25.25;;;14.70;99.90;;;;;;4996070;28;20022;-73
2021/03/27 11:40:32;;;;;;;29.77;26.33;;;14.70;99.90;;;;;;4996457;28;20510;-74
2021/03/27 11:43:12;;;;;;;34.90;27.83;;;14.40;99.90;;;;;;4994340;28;20030;-74
2021/03/27 11:45:56;;;;;;;42.15;29.50;;;14.10;99.90;;;;;;4993173;28;20499;-73
2021/03/27 11:49:04;;;;;;;41.67;31.52;;;13.90;99.90;;;;;;4992632;28;20026;-73
2021/03/27 11:51:42;;;;;;;34.47;30.85;;;13.80;99.90;;;;;;4971807;28;20027;-73
2021/03/27 11:54:22;;;;;;;37.08;32.03;;;13.70;99.90;;;;;;4994361;28;20117;-73
2021/03/27 11:57:02;;;;;;;41.22;33.78;;;13.70;99.90;;;;;;4982360;28;20023;-74
2021/03/27 12:02:57;;;;;;;46.58;39.10;;;14.00;99.90;;;;;;4969772;28;20053;-72
2021/03/27 12:05:44;;;;;;;45.92;36.95;;;14.30;99.90;;;;;;4997453;28;20030;-74
2021/03/27 12:08:22;;;;;;;48.85;39.50;;;14.80;99.90;;;;;;4997339;28;20030;-74
2021/03/27 12:10:53;;;;;;;44.38;39.95;;;15.20;99.90;;;;;;4994780;28;20491;-75
2021/03/27 12:13:57;;;;;;;41.50;37.10;;;15.50;99.90;;;;;;4993113;28;20022;-74
2021/03/27 12:16:35;;;;;;;47.97;36.08;;;16.00;99.90;;;;;;4979146;28;20281;-73
2021/03/27 12:19:29;;;;;;;41.00;35.47;;;16.20;99.90;;;;;;4994101;28;20037;-73
2021/03/27 12:22:31;;;;;;;40.70;34.63;;;16.40;99.90;;;;;;4992358;28;20056;-73
2021/03/27 12:25:18;;;;;;;37.47;33.53;;;16.60;99.90;;;;;;4960039;28;20117;-73
2021/03/27 12:27:47;;;;;;;50.50;37.35;;;16.70;99.90;;;;;;4987560;28;20393;-72
2021/03/27 12:30:40;;;;;;;42.30;36.50;;;16.60;99.90;;;;;;4983830;28;20030;-74
2021/03/27 12:33:08;;;;;;;42.60;37.95;;;16.30;99.90;;;;;;4994354;28;20090;-74
2021/03/27 12:35:46;;;;;;;54.15;40.33;;;15.70;99.90;;;;;;4994756;28;20021;-73
2021/03/27 12:38:16;;;;;;;46.53;39.40;;;15.40;99.90;;;;;;4989338;28;20053;-74
2021/03/27 12:41:01;;;;;;;48.00;38.17;;;15.20;99.90;;;;;;4993482;28;20474;-73
2021/03/27 12:43:30;;;;;;;46.45;40.60;;;15.20;99.90;;;;;;4988637;28;20114;-74
2021/03/27 12:46:33;;;;;;;50.13;39.40;;;15.30;99.90;;;;;;4971213;28;20077;-74
2021/03/27 12:49:16;;;;;;;47.45;39.28;;;15.40;99.90;;;;;;4989275;28;20039;-74
2021/03/27 12:51:55;;;;;;;49.00;38.95;;;15.40;99.90;;;;;;4991961;28;20030;-74
2021/03/27 12:54:48;;;;;;;43.17;38.28;;;15.40;99.90;;;;;;4991284;28;20030;-72
2021/03/27 12:57:39;;;;;;;44.17;36.90;;;15.60;99.90;;;;;;4990609;28;20391;-72
2021/03/27 13:00:26;;;;;;;40.67;35.35;;;15.90;99.90;;;;;;4992406;28;20022;-73
2021/03/27 13:03:10;;;;;;;40.55;36.25;;;16.10;99.90;;;;;;4996016;28;20102;-73
2021/03/27 13:05:55;;;;;;;43.83;31.67;;;16.20;99.90;;;;;;4991967;28;20018;-73
2021/03/27 13:08:38;;;;;;;32.88;29.17;;;16.50;99.90;;;;;;4990048;28;20025;-73
2021/03/27 13:11:10;;;;;;;34.33;28.45;;;16.70;99.90;;;;;;4983202;28;20027;-74
2021/03/27 13:13:53;;;;;;;36.17;32.10;;;16.80;99.90;;;;;;4989026;28;20030;-72
2021/03/27 13:16:27;;;;;;;46.92;30.27;;;17.00;99.90;;;;;;4988874;28;20018;-73
2021/03/27 13:18:55;;;;;;;29.98;26.73;;;16.80;99.90;;;;;;4985364;28;20465;-78
2021/03/27 13:21:23;;;;;;;38.35;28.20;;;17.00;99.90;;;;;;4985090;28;20537;-78
2021/03/27 13:24:07;;;;;;;34.72;27.52;;;17.00;99.90;;;;;;4986055;28;20093;-79
2021/03/27 13:26:34;;;;;;;37.13;30.13;;;17.10;99.90;;;;;;4969616;28;20026;-75
2021/03/27 13:29:31;;;;;;;33.10;29.52;;;17.00;99.90;;;;;;4984141;28;20034;-75
2021/03/27 13:32:16;;;;;;;32.58;27.38;;;16.80;99.90;;;;;;4988641;28;20029;-74
2021/03/27 13:34:54;;;;;;;33.70;29.98;;;16.60;99.90;;;;;;4991730;28;20026;-76
2021/03/27 13:37:31;;;;;;;39.60;31.48;;;16.40;99.90;;;;;;5003062;28;20022;-75
2021/03/27 13:40:14;;;;;;;34.78;31.02;;;16.50;99.90;;;;;;5009820;28;20080;-79
2021/03/27 13:43:04;;;;;;;34.25;30.60;;;16.50;99.90;;;;;;4986801;28;20038;-77
2021/03/27 13:45:57;;;;;;;41.35;32.90;;;16.60;99.90;;;;;;4995942;28;20037;-75
2021/03/27 13:48:29;;;;;;;37.35;30.77;;;16.60;99.90;;;;;;4990189;28;20040;-76
2021/03/27 13:51:17;;;;;;;35.90;30.50;;;16.60;99.90;;;;;;4992172;28;20030;-76
2021/03/27 13:54:00;;;;;;;42.28;32.58;;;16.60;99.90;;;;;;4991277;28;20028;-76
2021/03/27 13:56:26;;;;;;;36.10;32.33;;;16.60;99.90;;;;;;4991946;28;20030;-76
2021/03/27 13:59:07;;;;;;;35.17;31.40;;;16.70;99.90;;;;;;4990716;28;20129;-78
2021/03/27 14:02:05;;;;;;;41.65;31.10;;;16.90;99.90;;;;;;4991173;28;20592;-77
2021/03/27 14:04:36;;;;;;;36.20;32.35;;;16.80;99.90;;;;;;4980606;28;20018;-74